createdAt,value
2023-05-10T00:00:32.212Z,12.49
2023-05-10T00:02:58.757Z,12.50
2023-05-10T00:05:25.345Z,12.40
2023-05-10T00:07:52.128Z,12.36
2023-05-10T00:10:18.769Z,12.35
2023-05-10T00:12:45.496Z,12.33
2023-05-10T00:15:12.194Z,12.38
2023-05-10T00:17:38.613Z,12.29
2023-05-10T00:20:06.058Z,12.32
2023-05-10T00:22:32.876Z,12.40
2023-05-10T00:25:00.260Z,12.34
2023-05-10T00:27:26.651Z,12.42
2023-05-10T00:29:53.250Z,12.30
2023-05-10T00:32:19.713Z,12.36
2023-05-10T00:34:46.461Z,12.34
2023-05-10T00:37:12.979Z,12.34
2023-05-10T00:39:39.408Z,12.41
2023-05-10T00:42:06.436Z,12.40
2023-05-10T00:44:32.832Z,12.32
2023-05-10T00:47:00.502Z,12.32
2023-05-10T00:49:27.056Z,12.27
2023-05-10T00:51:53.746Z,12.25
2023-05-10T00:54:20.328Z,12.21
2023-05-10T00:56:49.775Z,12.34
2023-05-10T00:59:19.669Z,12.25
2023-05-10T01:01:47.060Z,12.23
2023-05-10T01:04:15.062Z,12.23
2023-05-10T01:06:42.664Z,12.36
2023-05-10T01:09:09.371Z,12.35
2023-05-10T01:11:37.328Z,12.27
2023-05-10T01:14:04.336Z,12.34
2023-05-10T01:16:37.542Z,12.32
2023-05-10T01:19:09.103Z,12.38
2023-05-10T01:22:14.915Z,12.35
2023-05-10T01:24:47.236Z,12.28
2023-05-10T01:27:20.156Z,12.29
2023-05-10T01:30:05.063Z,12.37
2023-05-10T01:32:44.841Z,12.34
2023-05-10T01:35:54.373Z,12.31
2023-05-10T01:38:33.848Z,12.29
2023-05-10T01:41:23.194Z,12.27
2023-05-10T01:44:04.912Z,12.44
2023-05-10T01:46:40.240Z,12.37
2023-05-10T01:49:24.036Z,12.30
2023-05-10T01:51:55.752Z,12.41
2023-05-10T01:54:25.291Z,12.42
2023-05-10T01:57:00.411Z,12.36
2023-05-10T01:59:30.575Z,12.35
2023-05-10T02:02:00.825Z,12.34
2023-05-10T02:04:29.298Z,12.35
2023-05-10T02:06:57.480Z,12.32
2023-05-10T02:09:26.436Z,12.38
2023-05-10T02:11:54.513Z,12.33
2023-05-10T02:14:22.412Z,12.44
2023-05-10T02:16:51.678Z,12.37
2023-05-10T02:19:21.294Z,12.41
2023-05-10T02:21:48.889Z,12.38
2023-05-10T02:24:17.022Z,12.32
2023-05-10T02:26:45.604Z,12.44
2023-05-10T02:29:13.251Z,12.38
2023-05-10T02:31:40.629Z,12.41
2023-05-10T02:34:09.588Z,12.40
2023-05-10T02:36:37.142Z,12.36
2023-05-10T02:39:05.647Z,12.33
2023-05-10T02:41:33.831Z,12.36
2023-05-10T02:44:03.779Z,12.34
2023-05-10T02:46:31.230Z,12.34
2023-05-10T02:48:57.735Z,12.29
2023-05-10T02:51:29.527Z,12.29
2023-05-10T02:53:58.228Z,12.25
2023-05-10T02:56:29.869Z,12.24
2023-05-10T02:58:56.660Z,12.23
2023-05-10T03:01:23.494Z,12.26
2023-05-10T03:03:50.068Z,12.28
2023-05-10T03:06:17.760Z,12.24
2023-05-10T03:08:46.276Z,12.25
2023-05-10T03:11:47.968Z,12.24
2023-05-10T03:14:41.252Z,12.17
2023-05-10T03:17:20.161Z,12.23
2023-05-10T03:20:04.299Z,12.26
2023-05-10T03:22:38.174Z,12.22
2023-05-10T03:25:10.105Z,12.10
2023-05-10T03:27:40.352Z,12.24
2023-05-10T03:30:10.220Z,12.24
2023-05-10T03:32:37.076Z,12.14
2023-05-10T03:35:11.462Z,12.19
2023-05-10T03:37:38.377Z,12.24
2023-05-10T03:40:05.630Z,12.19
2023-05-10T03:42:32.391Z,12.17
2023-05-10T03:44:58.787Z,12.21
2023-05-10T03:47:25.691Z,12.14
2023-05-10T03:49:52.194Z,12.18
2023-05-10T03:52:19.390Z,12.15
2023-05-10T03:54:45.812Z,12.16
2023-05-10T03:57:12.387Z,12.26
2023-05-10T03:59:38.816Z,12.18
2023-05-10T04:02:05.361Z,12.14
2023-05-10T04:04:31.977Z,12.10
2023-05-10T04:06:58.389Z,12.13
2023-05-10T04:09:24.886Z,12.12
2023-05-10T04:11:51.676Z,12.16
2023-05-10T04:14:18.325Z,12.13
2023-05-10T04:16:44.741Z,12.14
2023-05-10T04:19:11.184Z,12.14
2023-05-10T04:21:40.245Z,12.17
2023-05-10T04:24:06.793Z,12.29
2023-05-10T04:26:34.419Z,12.28
2023-05-10T04:29:01.613Z,12.24
2023-05-10T04:31:29.094Z,12.23
2023-05-10T04:33:55.989Z,12.25
2023-05-10T04:36:22.433Z,12.21
2023-05-10T04:38:49.077Z,12.26
2023-05-10T04:41:15.534Z,12.30
2023-05-10T04:43:41.909Z,12.23
2023-05-10T04:46:08.617Z,12.22
2023-05-10T04:48:35.225Z,12.23
2023-05-10T04:51:01.809Z,12.25
2023-05-10T04:53:29.330Z,12.21
2023-05-10T04:55:56.228Z,12.22
2023-05-10T04:58:22.631Z,12.22
2023-05-10T05:00:49.553Z,12.21
2023-05-10T05:03:16.159Z,12.23
2023-05-10T05:05:42.812Z,12.25
2023-05-10T05:08:09.872Z,12.23
2023-05-10T05:10:36.294Z,12.30
2023-05-10T05:13:03.022Z,12.23
2023-05-10T05:15:29.486Z,12.27
2023-05-10T05:17:56.176Z,12.31
2023-05-10T05:20:22.984Z,12.31
2023-05-10T05:22:49.668Z,12.26
2023-05-10T05:25:16.808Z,12.27
2023-05-10T05:27:43.344Z,12.27
2023-05-10T05:30:10.650Z,12.28
2023-05-10T05:32:37.101Z,12.30
2023-05-10T05:35:03.783Z,12.35
2023-05-10T05:37:30.312Z,12.32
2023-05-10T05:39:57.088Z,12.32
2023-05-10T05:42:23.498Z,12.37
2023-05-10T05:44:50.168Z,12.33
2023-05-10T05:47:16.900Z,12.36
2023-05-10T05:49:43.513Z,12.38
2023-05-10T05:52:09.914Z,12.46
2023-05-10T05:54:36.955Z,12.45
2023-05-10T05:57:03.688Z,12.56
2023-05-10T05:59:30.510Z,12.49
2023-05-10T06:01:57.276Z,12.56
2023-05-10T06:04:23.792Z,12.62
2023-05-10T06:06:50.329Z,12.68
2023-05-10T06:09:16.957Z,12.72
2023-05-10T06:11:44.495Z,12.76
2023-05-10T06:14:10.908Z,12.79
2023-05-10T06:16:37.848Z,12.82
2023-05-10T06:19:04.361Z,12.85
2023-05-10T06:21:31.220Z,12.93
2023-05-10T06:23:58.202Z,12.98
2023-05-10T06:26:24.591Z,13.00
2023-05-10T06:28:51.427Z,13.00
2023-05-10T06:31:18.123Z,13.00
2023-05-10T06:33:44.572Z,13.05
2023-05-10T06:36:11.180Z,13.01
2023-05-10T06:38:37.705Z,13.06
2023-05-10T06:41:04.502Z,13.04
2023-05-10T06:43:31.040Z,13.02
2023-05-10T06:45:57.761Z,13.03
2023-05-10T06:48:24.460Z,13.09
2023-05-10T06:50:50.847Z,13.20
2023-05-10T06:53:17.252Z,13.32
2023-05-10T06:55:44.126Z,13.28
2023-05-10T06:58:10.517Z,13.38
2023-05-10T07:00:41.270Z,13.41
2023-05-10T07:03:08.138Z,13.40
2023-05-10T07:05:34.985Z,13.45
2023-05-10T07:08:02.252Z,13.36
2023-05-10T07:10:29.206Z,13.41
2023-05-10T07:12:56.210Z,13.39
2023-05-10T07:15:22.844Z,13.49
2023-05-10T07:17:49.847Z,13.62
2023-05-10T07:20:16.532Z,13.77
2023-05-10T07:22:43.159Z,13.83
2023-05-10T07:25:09.797Z,13.79
2023-05-10T07:27:36.189Z,13.82
2023-05-10T07:30:03.517Z,13.79
2023-05-10T07:32:30.043Z,13.88
2023-05-10T07:34:56.544Z,13.95
2023-05-10T07:37:22.921Z,14.01
2023-05-10T07:39:49.327Z,13.83
2023-05-10T07:42:15.852Z,13.63
2023-05-10T07:44:43.233Z,13.56
2023-05-10T07:47:10.109Z,13.50
2023-05-10T07:49:36.668Z,13.50
2023-05-10T07:52:05.162Z,13.44
2023-05-10T07:54:31.673Z,13.43
2023-05-10T07:56:58.589Z,13.50
2023-05-10T07:59:24.959Z,13.54
2023-05-10T08:01:51.754Z,13.67
2023-05-10T08:04:18.173Z,13.65
2023-05-10T08:06:45.206Z,13.72
2023-05-10T08:09:11.915Z,13.76
2023-05-10T08:11:38.344Z,13.79
2023-05-10T08:14:05.376Z,13.82
2023-05-10T08:16:31.781Z,13.97
2023-05-10T08:18:58.817Z,13.91
2023-05-10T08:21:25.436Z,13.76
2023-05-10T08:23:52.360Z,13.88
2023-05-10T08:26:18.805Z,13.94
2023-05-10T08:28:45.664Z,13.99
2023-05-10T08:31:12.088Z,13.97
2023-05-10T08:33:38.889Z,13.98
2023-05-10T08:36:05.356Z,14.12
2023-05-10T08:38:31.984Z,14.13
2023-05-10T08:41:00.042Z,14.14
2023-05-10T08:43:30.825Z,14.10
2023-05-10T08:46:00.168Z,14.14
2023-05-10T08:48:29.801Z,14.21
2023-05-10T08:51:00.596Z,14.22
2023-05-10T08:53:29.273Z,14.25
2023-05-10T08:55:56.741Z,14.21
2023-05-10T08:58:23.498Z,14.35
2023-05-10T09:00:52.290Z,14.51
2023-05-10T09:03:19.498Z,14.53
2023-05-10T09:05:46.078Z,14.57
2023-05-10T09:08:13.953Z,14.52
2023-05-10T09:10:41.193Z,14.51
2023-05-10T09:13:09.953Z,14.54
2023-05-10T09:15:36.377Z,14.58
2023-05-10T09:18:03.446Z,14.62
2023-05-10T09:20:29.896Z,14.48
2023-05-10T09:22:56.351Z,14.62
2023-05-10T09:25:23.573Z,14.56
2023-05-10T09:27:50.535Z,14.59
2023-05-10T09:30:31.051Z,14.55
2023-05-10T09:32:59.275Z,14.39
2023-05-10T09:35:29.649Z,14.23
2023-05-10T09:37:59.020Z,14.08
2023-05-10T09:40:27.905Z,13.93
2023-05-10T09:42:59.260Z,13.90
2023-05-10T09:45:28.227Z,13.88
2023-05-10T09:47:55.258Z,13.92
2023-05-10T09:50:22.791Z,14.03
2023-05-10T09:52:53.164Z,13.98
2023-05-10T09:55:22.670Z,14.11
2023-05-10T09:57:50.661Z,14.22
2023-05-10T10:00:19.464Z,14.42
2023-05-10T10:02:55.423Z,14.47
2023-05-10T10:05:21.928Z,14.30
2023-05-10T10:07:50.366Z,14.15
2023-05-10T10:10:17.105Z,14.14
2023-05-10T10:12:45.476Z,14.30
2023-05-10T10:15:12.503Z,14.35
2023-05-10T10:17:40.268Z,14.41
2023-05-10T10:20:10.470Z,14.34
2023-05-10T10:22:38.453Z,14.38
2023-05-10T10:25:06.353Z,14.58
2023-05-10T10:28:00.798Z,14.86
2023-05-10T10:30:44.962Z,14.99
2023-05-10T10:33:29.698Z,15.21
2023-05-10T10:35:59.800Z,15.32
2023-05-10T10:38:26.249Z,15.48
2023-05-10T10:41:27.969Z,15.64
2023-05-10T10:44:26.854Z,15.71
2023-05-10T10:47:32.405Z,15.81
2023-05-10T10:49:58.803Z,15.84
2023-05-10T10:52:32.313Z,15.92
2023-05-10T10:55:02.434Z,16.10
2023-05-10T10:57:32.049Z,16.07
2023-05-10T11:00:20.007Z,16.00
2023-05-10T11:02:59.558Z,16.04
2023-05-10T11:05:28.715Z,15.92
2023-05-10T11:07:56.681Z,15.91
2023-05-10T11:10:27.594Z,15.81
2023-05-10T11:13:04.247Z,15.82
2023-05-10T11:15:32.960Z,15.79
2023-05-10T11:18:00.482Z,15.59
2023-05-10T11:20:40.235Z,15.29
2023-05-10T11:23:17.344Z,15.09
2023-05-10T11:25:47.612Z,14.99
2023-05-10T11:28:14.472Z,15.02
2023-05-10T11:30:42.801Z,14.95
2023-05-10T11:33:09.945Z,14.94
2023-05-10T11:35:43.428Z,14.79
2023-05-10T11:38:14.662Z,14.82
2023-05-10T11:40:42.282Z,14.66
2023-05-10T11:43:10.318Z,14.65
2023-05-10T11:45:36.825Z,14.41
2023-05-10T11:48:03.761Z,14.51
2023-05-10T11:50:30.640Z,14.53
2023-05-10T11:52:58.065Z,14.45
2023-05-10T11:55:27.956Z,14.41
2023-05-10T11:57:55.501Z,14.50
2023-05-10T12:00:22.886Z,14.60
2023-05-10T12:02:49.828Z,14.81
2023-05-10T12:05:17.192Z,14.99
2023-05-10T12:07:44.069Z,15.17
2023-05-10T12:10:18.629Z,15.50
2023-05-10T12:12:49.048Z,15.77
2023-05-10T12:15:21.032Z,16.07
2023-05-10T12:17:48.422Z,16.04
2023-05-10T12:20:15.778Z,16.30
2023-05-10T12:22:45.801Z,16.47
2023-05-10T12:25:13.659Z,16.59
2023-05-10T12:27:40.264Z,16.63
2023-05-10T12:30:07.596Z,16.41
2023-05-10T12:32:45.004Z,16.51
2023-05-10T12:35:11.619Z,16.58
2023-05-10T12:37:40.040Z,16.59
2023-05-10T12:40:09.174Z,16.45
2023-05-10T12:42:39.319Z,16.26
2023-05-10T12:45:06.794Z,16.24
2023-05-10T12:47:35.522Z,16.04
2023-05-10T12:50:03.632Z,16.05
2023-05-10T12:52:30.869Z,16.20
2023-05-10T12:54:57.292Z,16.24
2023-05-10T12:57:24.153Z,16.31
2023-05-10T12:59:50.660Z,16.29
2023-05-10T13:02:19.071Z,16.45
2023-05-10T13:04:48.231Z,16.07
2023-05-10T13:07:16.084Z,16.18
2023-05-10T13:09:42.826Z,16.17
2023-05-10T13:12:10.253Z,16.20
2023-05-10T13:14:37.414Z,16.07
2023-05-10T13:17:03.839Z,16.11
2023-05-10T13:19:30.449Z,16.09
2023-05-10T13:21:56.917Z,15.95
2023-05-10T13:24:23.527Z,15.84
2023-05-10T13:26:50.327Z,15.58
2023-05-10T13:29:18.919Z,15.55
2023-05-10T13:31:46.091Z,15.37
2023-05-10T13:34:12.540Z,15.26
2023-05-10T13:36:39.174Z,15.19
2023-05-10T13:39:06.365Z,15.20
2023-05-10T13:41:33.031Z,15.29
2023-05-10T13:43:59.587Z,15.27
2023-05-10T13:46:26.158Z,15.32
2023-05-10T13:48:52.901Z,15.41
2023-05-10T13:51:19.369Z,15.54
2023-05-10T13:53:48.408Z,15.52
2023-05-10T13:56:15.288Z,15.53
2023-05-10T13:58:42.235Z,15.66
2023-05-10T14:01:08.809Z,15.63
2023-05-10T14:03:35.365Z,15.62
2023-05-10T14:06:01.896Z,15.74
2023-05-10T14:08:28.285Z,15.68
2023-05-10T14:10:57.133Z,15.77
2023-05-10T14:13:24.006Z,15.79
2023-05-10T14:15:51.085Z,15.69
2023-05-10T14:18:17.618Z,15.65
2023-05-10T14:20:44.413Z,15.56
2023-05-10T14:23:12.067Z,15.34
2023-05-10T14:25:40.860Z,15.27
2023-05-10T14:28:07.390Z,15.26
2023-05-10T14:30:35.112Z,15.31
2023-05-10T14:33:03.187Z,15.17
2023-05-10T14:35:31.865Z,15.02
2023-05-10T14:37:59.133Z,15.00
2023-05-10T14:40:25.671Z,15.04
2023-05-10T14:42:54.263Z,15.01
2023-05-10T14:45:21.576Z,14.89
2023-05-10T14:47:48.168Z,14.86
2023-05-10T14:50:28.236Z,14.82
2023-05-10T14:53:01.405Z,14.92
2023-05-10T14:55:28.173Z,14.93
2023-05-10T14:57:55.118Z,14.96
2023-05-10T15:00:22.215Z,15.07
2023-05-10T15:02:49.316Z,15.08
2023-05-10T15:05:18.933Z,15.13
2023-05-10T15:07:45.841Z,15.18
2023-05-10T15:10:12.581Z,15.29
2023-05-10T15:12:39.179Z,15.29
2023-05-10T15:15:06.652Z,15.35
2023-05-10T15:17:33.749Z,15.51
2023-05-10T15:20:00.540Z,15.65
2023-05-10T15:22:29.523Z,15.58
2023-05-10T15:24:56.648Z,15.61
2023-05-10T15:27:23.410Z,15.65
2023-05-10T15:29:49.766Z,15.72
2023-05-10T15:32:16.642Z,15.85
2023-05-10T15:34:43.270Z,15.83
2023-05-10T15:37:10.108Z,16.07
2023-05-10T15:39:36.525Z,16.06
2023-05-10T15:42:04.069Z,16.01
2023-05-10T15:44:30.696Z,15.99
2023-05-10T15:46:57.649Z,15.99
2023-05-10T15:49:24.783Z,16.07
2023-05-10T15:51:51.205Z,16.18
2023-05-10T15:54:17.818Z,16.60
2023-05-10T15:56:44.210Z,16.82
2023-05-10T15:59:11.744Z,17.19
2023-05-10T16:01:39.533Z,17.18
2023-05-10T16:04:06.163Z,17.28
2023-05-10T16:06:32.771Z,17.06
2023-05-10T16:08:59.154Z,16.98
2023-05-10T16:11:27.250Z,16.93
2023-05-10T16:13:53.753Z,16.95
2023-05-10T16:16:20.225Z,16.96
2023-05-10T16:18:47.660Z,17.31
2023-05-10T16:21:14.655Z,17.48
2023-05-10T16:23:41.227Z,17.36
2023-05-10T16:26:08.747Z,17.38
2023-05-10T16:28:36.392Z,17.17
2023-05-10T16:31:03.746Z,17.03
2023-05-10T16:33:30.329Z,16.85
2023-05-10T16:35:56.862Z,16.59
2023-05-10T16:38:23.330Z,16.52
2023-05-10T16:40:50.037Z,16.53
2023-05-10T16:43:16.713Z,16.64
2023-05-10T16:45:43.276Z,16.56
2023-05-10T16:48:09.730Z,16.50
2023-05-10T16:50:36.528Z,16.40
2023-05-10T16:53:03.313Z,16.12
2023-05-10T16:55:29.741Z,16.00
2023-05-10T16:58:00.073Z,15.92
2023-05-10T17:00:27.493Z,15.94
2023-05-10T17:02:54.684Z,16.02
2023-05-10T17:05:22.676Z,16.02
2023-05-10T17:07:49.353Z,16.01
2023-05-10T17:10:16.570Z,16.07
2023-05-10T17:12:43.733Z,15.91
2023-05-10T17:15:10.546Z,15.70
2023-05-10T17:17:37.115Z,15.69
2023-05-10T17:20:04.898Z,15.66
2023-05-10T17:22:31.527Z,15.65
2023-05-10T17:24:58.117Z,15.66
2023-05-10T17:27:24.926Z,15.69
2023-05-10T17:29:56.673Z,15.64
2023-05-10T17:32:23.813Z,15.71
2023-05-10T17:34:50.363Z,15.65
2023-05-10T17:37:16.951Z,15.64
2023-05-10T17:39:43.441Z,15.60
2023-05-10T17:42:09.867Z,15.36
2023-05-10T17:44:36.557Z,15.29
2023-05-10T17:47:03.354Z,15.17
2023-05-10T17:49:29.983Z,15.21
2023-05-10T17:51:56.384Z,15.20
2023-05-10T17:54:23.129Z,15.14
2023-05-10T17:56:49.572Z,15.14
2023-05-10T17:59:16.255Z,14.94
2023-05-10T18:01:43.140Z,14.83
2023-05-10T18:04:09.676Z,14.76
2023-05-10T18:06:37.408Z,14.77
2023-05-10T18:09:05.087Z,14.85
2023-05-10T18:11:31.724Z,14.82
2023-05-10T18:13:58.134Z,14.78
2023-05-10T18:16:25.019Z,14.68
2023-05-10T18:18:51.533Z,14.57
2023-05-10T18:21:18.511Z,14.53
2023-05-10T18:23:45.049Z,14.51
2023-05-10T18:26:12.323Z,14.51
2023-05-10T18:28:38.732Z,14.44
2023-05-10T18:31:06.279Z,14.29
2023-05-10T18:33:32.964Z,14.22
2023-05-10T18:36:00.222Z,14.14
2023-05-10T18:38:26.909Z,14.13
2023-05-10T18:40:53.321Z,14.04
2023-05-10T18:43:19.702Z,13.86
2023-05-10T18:45:46.177Z,13.70
2023-05-10T18:48:13.104Z,13.70
2023-05-10T18:50:39.849Z,13.62
2023-05-10T18:53:06.265Z,13.62
2023-05-10T18:55:33.021Z,13.48
2023-05-10T18:57:59.400Z,13.30
2023-05-10T19:00:26.563Z,13.13
2023-05-10T19:02:53.612Z,13.07
2023-05-10T19:05:20.305Z,13.05
2023-05-10T19:07:46.932Z,13.02
2023-05-10T19:10:13.910Z,12.93
2023-05-10T19:12:43.184Z,12.87
2023-05-10T19:15:10.450Z,12.77
2023-05-10T19:17:38.391Z,12.70
2023-05-10T19:20:06.710Z,12.65
2023-05-10T19:22:45.518Z,12.63
2023-05-10T19:25:21.026Z,12.51
2023-05-10T19:27:47.776Z,12.38
2023-05-10T19:30:14.211Z,12.33
2023-05-10T19:32:43.921Z,12.26
2023-05-10T19:35:13.101Z,12.16
2023-05-10T19:37:40.463Z,12.06
2023-05-10T19:40:07.492Z,11.94
2023-05-10T19:42:35.497Z,11.88
2023-05-10T19:45:01.883Z,11.85
2023-05-10T19:47:28.323Z,11.86
2023-05-10T19:49:54.961Z,11.82
2023-05-10T19:52:22.572Z,11.76
2023-05-10T19:54:49.370Z,11.64
2023-05-10T19:57:15.977Z,11.48
2023-05-10T19:59:42.598Z,11.37
2023-05-10T20:02:08.971Z,11.33
2023-05-10T20:04:35.506Z,11.28
2023-05-10T20:07:01.885Z,11.19
2023-05-10T20:09:28.528Z,11.17
2023-05-10T20:11:54.993Z,11.19
2023-05-10T20:14:21.389Z,11.24
2023-05-10T20:16:47.880Z,11.16
2023-05-10T20:19:14.836Z,11.23
2023-05-10T20:21:41.312Z,11.15
2023-05-10T20:24:09.152Z,11.14
2023-05-10T20:26:36.048Z,11.14
2023-05-10T20:29:02.681Z,11.10
2023-05-10T20:31:29.149Z,11.02
2023-05-10T20:33:55.690Z,10.94
2023-05-10T20:36:22.396Z,10.91
2023-05-10T20:38:48.825Z,10.89
2023-05-10T20:41:15.335Z,10.88
2023-05-10T20:43:41.856Z,10.84
2023-05-10T20:46:08.590Z,10.77
2023-05-10T20:48:35.160Z,10.79
2023-05-10T20:51:02.337Z,10.81
2023-05-10T20:53:29.812Z,10.86
2023-05-10T20:55:56.225Z,10.89
2023-05-10T20:58:22.720Z,10.97
2023-05-10T21:00:49.087Z,11.02
2023-05-10T21:03:16.026Z,11.04
2023-05-10T21:05:42.571Z,10.99
2023-05-10T21:08:09.245Z,10.94
2023-05-10T21:10:35.769Z,10.89
2023-05-10T21:13:02.591Z,10.82
2023-05-10T21:15:29.026Z,10.85
2023-05-10T21:17:56.014Z,10.87
2023-05-10T21:20:23.395Z,10.85
2023-05-10T21:22:49.991Z,10.85
2023-05-10T21:25:17.549Z,10.87
2023-05-10T21:27:44.090Z,10.85
2023-05-10T21:30:10.756Z,10.81
2023-05-10T21:32:37.274Z,10.78
2023-05-10T21:35:04.751Z,10.75
2023-05-10T21:37:31.199Z,10.74
2023-05-10T21:39:58.805Z,10.68
2023-05-10T21:42:25.574Z,10.61
2023-05-10T21:44:52.312Z,10.61
2023-05-10T21:47:18.700Z,10.65
2023-05-10T21:49:45.090Z,10.69
2023-05-10T21:52:11.858Z,10.69
2023-05-10T21:54:38.889Z,10.69
2023-05-10T21:57:05.306Z,10.61
2023-05-10T21:59:31.722Z,10.55
2023-05-10T22:01:58.235Z,10.42
2023-05-10T22:04:24.718Z,10.38
2023-05-10T22:06:51.131Z,10.35
2023-05-10T22:09:18.763Z,10.25
2023-05-10T22:11:45.591Z,10.21
2023-05-10T22:14:11.969Z,10.20
2023-05-10T22:16:38.415Z,10.21
2023-05-10T22:19:05.114Z,10.21
2023-05-10T22:21:31.827Z,10.22
2023-05-10T22:23:58.627Z,10.20
2023-05-10T22:26:25.471Z,10.25
2023-05-10T22:28:51.867Z,10.23
2023-05-10T22:31:18.863Z,10.19
2023-05-10T22:33:45.310Z,10.16
2023-05-10T22:36:12.024Z,10.18
2023-05-10T22:38:38.384Z,10.22
2023-05-10T22:41:05.101Z,10.10
2023-05-10T22:43:31.553Z,10.06
2023-05-10T22:45:58.498Z,10.10
2023-05-10T22:48:25.124Z,10.08
2023-05-10T22:50:51.765Z,10.02
2023-05-10T22:53:18.159Z,10.00
2023-05-10T22:55:45.098Z,10.03
2023-05-10T22:58:11.537Z,10.07
2023-05-10T23:00:38.030Z,10.13
2023-05-10T23:03:06.817Z,10.12
2023-05-10T23:05:33.709Z,10.09
2023-05-10T23:08:00.581Z,10.09
2023-05-10T23:10:27.197Z,10.08
2023-05-10T23:12:53.657Z,10.08
2023-05-10T23:15:20.623Z,10.13
2023-05-10T23:17:47.197Z,10.17
2023-05-10T23:20:13.965Z,10.22
2023-05-10T23:22:40.520Z,10.25
2023-05-10T23:25:08.017Z,10.29
2023-05-10T23:27:34.585Z,10.36
2023-05-10T23:30:01.336Z,10.37
2023-05-10T23:32:28.110Z,10.41
2023-05-10T23:34:54.611Z,10.53
2023-05-10T23:37:22.135Z,10.52
2023-05-10T23:39:48.581Z,10.46
2023-05-10T23:42:15.099Z,10.51
2023-05-10T23:44:41.716Z,10.57
2023-05-10T23:47:08.858Z,10.65
2023-05-10T23:49:35.281Z,10.63
2023-05-10T23:52:01.754Z,10.65
2023-05-10T23:54:29.924Z,10.64
2023-05-10T23:56:56.798Z,10.72
2023-05-10T23:59:23.439Z,10.75
